Canuelas, Argentina
Current Conditions -  °F | °C
As of 9:00 PM on Friday 21 Nov 2014 (Local Time) from SAEZ Reporting Station
Light Rain Light Rain  
Wind Chill: 57°   Ceiling: 4000
Heat Index: 57°   Visibility: 5mi
Dew Point: 54°   Wind: 6mph
Humidity: 88%   Direction: 180°S
Pressure: 29.91"   Gusts: NA
Location:  35.05°S, 58.73°W
Report Text: SAEZ 220000Z 18005KT 8000 -RA FEW010 BKN040 OVC060 14/12 Q1013
Loading
Personal Weather Stations






























Interactive Weather Map New forecast layout! Learn more

10-Day Weather Forecast

Advertisements
Track Severe Weather on mobile